sensor_id;sensor_type;location;lat;lon;timestamp;P1;durP1;ratioP1;P2;durP2;ratioP2
77586;SDS011;66744;49.716;17.158;2023-07-20T00:02:32;3.40;;;2.47;;
77586;SDS011;66744;49.716;17.158;2023-07-20T00:05:33;4.25;;;2.80;;
77586;SDS011;66744;49.716;17.158;2023-07-20T00:08:34;3.20;;;2.10;;
77586;SDS011;66744;49.716;17.158;2023-07-20T00:11:36;4.53;;;2.30;;
77586;SDS011;66744;49.716;17.158;2023-07-20T00:14:41;4.65;;;2.60;;
77586;SDS011;66744;49.716;17.158;2023-07-20T00:17:42;5.07;;;2.90;;
77586;SDS011;66744;49.716;17.158;2023-07-20T00:20:45;3.92;;;2.28;;
77586;SDS011;66744;49.716;17.158;2023-07-20T00:23:47;4.72;;;2.50;;
77586;SDS011;66744;49.716;17.158;2023-07-20T00:26:48;3.97;;;2.53;;
77586;SDS011;66744;49.716;17.158;2023-07-20T00:29:50;6.88;;;2.75;;
77586;SDS011;66744;49.716;17.158;2023-07-20T00:32:51;3.92;;;2.45;;
77586;SDS011;66744;49.716;17.158;2023-07-20T00:35:59;4.10;;;2.42;;
77586;SDS011;66744;49.716;17.158;2023-07-20T00:39:00;3.67;;;2.47;;
77586;SDS011;66744;49.716;17.158;2023-07-20T00:42:03;3.92;;;2.38;;
77586;SDS011;66744;49.716;17.158;2023-07-20T00:45:05;4.97;;;2.65;;
77586;SDS011;66744;49.716;17.158;2023-07-20T00:48:07;4.25;;;2.53;;
77586;SDS011;66744;49.716;17.158;2023-07-20T00:51:09;3.17;;;2.22;;
77586;SDS011;66744;49.716;17.158;2023-07-20T00:54:12;4.47;;;2.42;;
77586;SDS011;66744;49.716;17.158;2023-07-20T00:57:14;3.83;;;2.35;;
77586;SDS011;66744;49.716;17.158;2023-07-20T01:00:18;5.50;;;2.05;;
77586;SDS011;66744;49.716;17.158;2023-07-20T01:03:20;4.07;;;2.58;;
77586;SDS011;66744;49.716;17.158;2023-07-20T01:09:39;3.53;;;2.38;;
77586;SDS011;66744;49.716;17.158;2023-07-20T01:12:47;6.25;;;2.72;;
77586;SDS011;66744;49.716;17.158;2023-07-20T01:15:57;3.58;;;2.72;;
77586;SDS011;66744;49.716;17.158;2023-07-20T01:19:01;4.72;;;2.33;;
77586;SDS011;66744;49.716;17.158;2023-07-20T01:32:28;4.32;;;2.33;;
77586;SDS011;66744;49.716;17.158;2023-07-20T01:35:32;4.82;;;2.78;;
77586;SDS011;66744;49.716;17.158;2023-07-20T01:38:35;3.67;;;2.13;;
77586;SDS011;66744;49.716;17.158;2023-07-20T01:41:37;5.03;;;2.65;;
77586;SDS011;66744;49.716;17.158;2023-07-20T01:44:39;3.55;;;2.50;;
77586;SDS011;66744;49.716;17.158;2023-07-20T01:47:41;4.68;;;2.78;;
77586;SDS011;66744;49.716;17.158;2023-07-20T01:50:43;4.93;;;2.83;;
77586;SDS011;66744;49.716;17.158;2023-07-20T01:53:45;3.40;;;2.00;;
77586;SDS011;66744;49.716;17.158;2023-07-20T01:56:49;5.95;;;2.63;;
77586;SDS011;66744;49.716;17.158;2023-07-20T01:59:56;5.65;;;2.78;;
77586;SDS011;66744;49.716;17.158;2023-07-20T02:03:19;4.00;;;2.65;;
77586;SDS011;66744;49.716;17.158;2023-07-20T02:06:23;4.45;;;2.40;;
77586;SDS011;66744;49.716;17.158;2023-07-20T02:09:24;5.57;;;2.72;;
77586;SDS011;66744;49.716;17.158;2023-07-20T02:12:25;5.50;;;2.85;;
77586;SDS011;66744;49.716;17.158;2023-07-20T02:15:27;5.70;;;2.90;;
77586;SDS011;66744;49.716;17.158;2023-07-20T02:18:29;5.68;;;2.92;;
77586;SDS011;66744;49.716;17.158;2023-07-20T02:21:31;2.40;;;2.20;;
77586;SDS011;66744;49.716;17.158;2023-07-20T02:24:33;5.10;;;3.13;;
77586;SDS011;66744;49.716;17.158;2023-07-20T02:27:35;4.35;;;2.60;;
77586;SDS011;66744;49.716;17.158;2023-07-20T02:30:38;6.25;;;2.97;;
77586;SDS011;66744;49.716;17.158;2023-07-20T02:33:40;5.30;;;3.03;;
77586;SDS011;66744;49.716;17.158;2023-07-20T02:36:41;4.15;;;2.60;;
77586;SDS011;66744;49.716;17.158;2023-07-20T02:39:46;3.20;;;2.53;;
77586;SDS011;66744;49.716;17.158;2023-07-20T02:42:48;7.57;;;3.03;;
77586;SDS011;66744;49.716;17.158;2023-07-20T02:45:50;5.22;;;3.10;;
77586;SDS011;66744;49.716;17.158;2023-07-20T02:48:51;7.30;;;3.28;;
77586;SDS011;66744;49.716;17.158;2023-07-20T02:51:52;5.50;;;2.90;;
77586;SDS011;66744;49.716;17.158;2023-07-20T02:54:55;6.28;;;3.00;;
77586;SDS011;66744;49.716;17.158;2023-07-20T02:57:56;6.30;;;3.03;;
77586;SDS011;66744;49.716;17.158;2023-07-20T03:00:58;4.82;;;2.78;;
77586;SDS011;66744;49.716;17.158;2023-07-20T03:03:59;5.22;;;2.80;;
77586;SDS011;66744;49.716;17.158;2023-07-20T03:07:01;4.95;;;3.10;;
77586;SDS011;66744;49.716;17.158;2023-07-20T03:10:04;6.05;;;3.15;;
77586;SDS011;66744;49.716;17.158;2023-07-20T03:13:10;5.90;;;2.78;;
77586;SDS011;66744;49.716;17.158;2023-07-20T03:16:17;6.10;;;3.13;;
77586;SDS011;66744;49.716;17.158;2023-07-20T03:19:19;4.15;;;3.33;;
77586;SDS011;66744;49.716;17.158;2023-07-20T03:22:21;6.60;;;3.28;;
77586;SDS011;66744;49.716;17.158;2023-07-20T03:25:23;11.32;;;3.03;;
77586;SDS011;66744;49.716;17.158;2023-07-20T03:28:24;6.72;;;2.78;;
77586;SDS011;66744;49.716;17.158;2023-07-20T03:31:27;5.72;;;3.15;;
77586;SDS011;66744;49.716;17.158;2023-07-20T03:34:38;9.68;;;3.10;;
77586;SDS011;66744;49.716;17.158;2023-07-20T03:37:41;6.50;;;3.30;;
77586;SDS011;66744;49.716;17.158;2023-07-20T03:40:53;5.90;;;2.80;;
77586;SDS011;66744;49.716;17.158;2023-07-20T03:43:58;8.43;;;3.30;;
77586;SDS011;66744;49.716;17.158;2023-07-20T03:47:00;5.78;;;2.92;;
77586;SDS011;66744;49.716;17.158;2023-07-20T03:50:01;5.63;;;2.88;;
77586;SDS011;66744;49.716;17.158;2023-07-20T03:53:04;4.85;;;2.75;;
77586;SDS011;66744;49.716;17.158;2023-07-20T03:56:06;4.72;;;3.20;;
77586;SDS011;66744;49.716;17.158;2023-07-20T03:59:07;5.50;;;2.67;;
77586;SDS011;66744;49.716;17.158;2023-07-20T04:02:09;7.88;;;3.00;;
77586;SDS011;66744;49.716;17.158;2023-07-20T04:05:10;4.40;;;2.20;;
77586;SDS011;66744;49.716;17.158;2023-07-20T04:08:11;8.50;;;2.78;;
77586;SDS011;66744;49.716;17.158;2023-07-20T04:11:18;5.45;;;2.60;;
77586;SDS011;66744;49.716;17.158;2023-07-20T04:14:20;5.63;;;2.70;;
77586;SDS011;66744;49.716;17.158;2023-07-20T04:17:21;6.32;;;2.35;;
77586;SDS011;66744;49.716;17.158;2023-07-20T04:20:23;8.70;;;3.22;;
77586;SDS011;66744;49.716;17.158;2023-07-20T04:23:24;7.82;;;3.38;;
77586;SDS011;66744;49.716;17.158;2023-07-20T04:26:26;7.95;;;3.03;;
77586;SDS011;66744;49.716;17.158;2023-07-20T04:29:28;8.90;;;3.40;;
77586;SDS011;66744;49.716;17.158;2023-07-20T04:32:29;6.82;;;3.42;;
77586;SDS011;66744;49.716;17.158;2023-07-20T04:35:45;8.95;;;3.83;;
77586;SDS011;66744;49.716;17.158;2023-07-20T04:38:50;8.05;;;3.58;;
77586;SDS011;66744;49.716;17.158;2023-07-20T04:41:54;5.93;;;2.85;;
77586;SDS011;66744;49.716;17.158;2023-07-20T04:44:55;8.18;;;2.60;;
77586;SDS011;66744;49.716;17.158;2023-07-20T04:47:57;6.65;;;2.65;;
77586;SDS011;66744;49.716;17.158;2023-07-20T04:50:58;7.68;;;2.33;;
77586;SDS011;66744;49.716;17.158;2023-07-20T04:54:00;4.30;;;1.92;;
77586;SDS011;66744;49.716;17.158;2023-07-20T04:57:11;5.07;;;2.20;;
77586;SDS011;66744;49.716;17.158;2023-07-20T05:00:18;6.32;;;2.10;;
77586;SDS011;66744;49.716;17.158;2023-07-20T05:03:20;4.32;;;2.17;;
77586;SDS011;66744;49.716;17.158;2023-07-20T05:06:22;4.72;;;2.05;;
77586;SDS011;66744;49.716;17.158;2023-07-20T05:09:23;5.45;;;2.83;;
77586;SDS011;66744;49.716;17.158;2023-07-20T05:12:25;4.07;;;2.47;;
77586;SDS011;66744;49.716;17.158;2023-07-20T05:15:27;4.43;;;2.30;;
77586;SDS011;66744;49.716;17.158;2023-07-20T05:18:30;5.20;;;2.40;;
77586;SDS011;66744;49.716;17.158;2023-07-20T05:21:32;6.47;;;2.83;;
77586;SDS011;66744;49.716;17.158;2023-07-20T05:24:33;4.68;;;2.38;;
77586;SDS011;66744;49.716;17.158;2023-07-20T05:27:38;5.18;;;2.45;;
77586;SDS011;66744;49.716;17.158;2023-07-20T05:30:46;5.25;;;1.85;;
77586;SDS011;66744;49.716;17.158;2023-07-20T05:33:50;3.85;;;2.83;;
77586;SDS011;66744;49.716;17.158;2023-07-20T05:36:55;3.88;;;1.90;;
77586;SDS011;66744;49.716;17.158;2023-07-20T05:39:57;4.13;;;2.10;;
77586;SDS011;66744;49.716;17.158;2023-07-20T05:42:58;10.63;;;2.15;;
77586;SDS011;66744;49.716;17.158;2023-07-20T05:46:01;2.30;;;1.98;;
77586;SDS011;66744;49.716;17.158;2023-07-20T05:49:02;5.90;;;1.98;;
77586;SDS011;66744;49.716;17.158;2023-07-20T05:52:07;4.13;;;2.55;;
77586;SDS011;66744;49.716;17.158;2023-07-20T05:55:08;2.53;;;1.63;;
77586;SDS011;66744;49.716;17.158;2023-07-20T05:58:10;3.30;;;2.10;;
77586;SDS011;66744;49.716;17.158;2023-07-20T06:01:11;5.45;;;2.13;;
77586;SDS011;66744;49.716;17.158;2023-07-20T06:04:12;2.83;;;2.03;;
77586;SDS011;66744;49.716;17.158;2023-07-20T06:07:14;3.13;;;1.85;;
77586;SDS011;66744;49.716;17.158;2023-07-20T06:10:15;4.15;;;2.10;;
77586;SDS011;66744;49.716;17.158;2023-07-20T06:13:17;2.78;;;2.03;;
77586;SDS011;66744;49.716;17.158;2023-07-20T06:16:18;3.08;;;1.75;;
77586;SDS011;66744;49.716;17.158;2023-07-20T06:19:19;3.70;;;1.88;;
77586;SDS011;66744;49.716;17.158;2023-07-20T06:22:23;3.35;;;1.80;;
77586;SDS011;66744;49.716;17.158;2023-07-20T06:25:24;2.97;;;1.92;;
77586;SDS011;66744;49.716;17.158;2023-07-20T06:28:26;3.13;;;1.80;;
77586;SDS011;66744;49.716;17.158;2023-07-20T06:31:27;3.42;;;1.80;;
77586;SDS011;66744;49.716;17.158;2023-07-20T06:34:28;5.85;;;1.88;;
77586;SDS011;66744;49.716;17.158;2023-07-20T06:37:30;5.97;;;2.20;;
77586;SDS011;66744;49.716;17.158;2023-07-20T06:40:32;2.58;;;1.83;;
77586;SDS011;66744;49.716;17.158;2023-07-20T06:43:33;3.28;;;1.70;;
77586;SDS011;66744;49.716;17.158;2023-07-20T06:46:34;2.67;;;1.98;;
77586;SDS011;66744;49.716;17.158;2023-07-20T06:49:36;4.00;;;2.05;;
77586;SDS011;66744;49.716;17.158;2023-07-20T06:52:37;2.65;;;1.77;;
77586;SDS011;66744;49.716;17.158;2023-07-20T06:55:41;8.48;;;2.78;;
77586;SDS011;66744;49.716;17.158;2023-07-20T06:58:43;4.68;;;3.05;;
77586;SDS011;66744;49.716;17.158;2023-07-20T07:01:45;3.15;;;2.28;;
77586;SDS011;66744;49.716;17.158;2023-07-20T07:04:46;4.13;;;2.35;;
77586;SDS011;66744;49.716;17.158;2023-07-20T07:07:50;4.65;;;2.42;;
77586;SDS011;66744;49.716;17.158;2023-07-20T07:10:52;2.97;;;2.28;;
77586;SDS011;66744;49.716;17.158;2023-07-20T07:13:53;3.13;;;2.05;;
77586;SDS011;66744;49.716;17.158;2023-07-20T07:16:55;4.85;;;2.35;;
77586;SDS011;66744;49.716;17.158;2023-07-20T07:19:56;4.05;;;2.72;;
77586;SDS011;66744;49.716;17.158;2023-07-20T07:22:57;3.40;;;2.33;;
77586;SDS011;66744;49.716;17.158;2023-07-20T07:25:59;3.25;;;2.30;;
77586;SDS011;66744;49.716;17.158;2023-07-20T07:29:01;3.75;;;2.28;;
77586;SDS011;66744;49.716;17.158;2023-07-20T07:32:03;3.20;;;2.05;;
77586;SDS011;66744;49.716;17.158;2023-07-20T07:35:05;2.85;;;1.98;;
77586;SDS011;66744;49.716;17.158;2023-07-20T07:38:06;4.18;;;2.60;;
77586;SDS011;66744;49.716;17.158;2023-07-20T07:41:08;2.67;;;2.23;;
77586;SDS011;66744;49.716;17.158;2023-07-20T07:44:09;5.75;;;2.47;;
77586;SDS011;66744;49.716;17.158;2023-07-20T07:47:13;2.70;;;1.95;;
77586;SDS011;66744;49.716;17.158;2023-07-20T07:50:15;3.47;;;2.13;;
77586;SDS011;66744;49.716;17.158;2023-07-20T07:53:16;2.50;;;2.13;;
77586;SDS011;66744;49.716;17.158;2023-07-20T07:56:19;2.83;;;2.38;;
77586;SDS011;66744;49.716;17.158;2023-07-20T07:59:23;4.22;;;2.55;;
77586;SDS011;66744;49.716;17.158;2023-07-20T08:02:24;4.05;;;2.13;;
77586;SDS011;66744;49.716;17.158;2023-07-20T08:05:29;3.80;;;2.60;;
77586;SDS011;66744;49.716;17.158;2023-07-20T08:08:31;6.57;;;2.60;;
77586;SDS011;66744;49.716;17.158;2023-07-20T08:11:33;3.03;;;2.40;;
77586;SDS011;66744;49.716;17.158;2023-07-20T08:14:35;2.97;;;1.90;;
77586;SDS011;66744;49.716;17.158;2023-07-20T08:17:36;5.32;;;2.03;;
77586;SDS011;66744;49.716;17.158;2023-07-20T08:20:38;2.65;;;2.33;;
77586;SDS011;66744;49.716;17.158;2023-07-20T08:23:39;2.03;;;1.77;;
77586;SDS011;66744;49.716;17.158;2023-07-20T08:26:41;2.60;;;2.40;;
77586;SDS011;66744;49.716;17.158;2023-07-20T08:29:42;3.25;;;2.33;;
77586;SDS011;66744;49.716;17.158;2023-07-20T08:32:43;4.28;;;2.00;;
77586;SDS011;66744;49.716;17.158;2023-07-20T08:35:47;3.25;;;2.00;;
77586;SDS011;66744;49.716;17.158;2023-07-20T08:38:49;4.25;;;2.53;;
77586;SDS011;66744;49.716;17.158;2023-07-20T08:41:51;2.38;;;2.00;;
77586;SDS011;66744;49.716;17.158;2023-07-20T08:44:53;4.03;;;1.90;;
77586;SDS011;66744;49.716;17.158;2023-07-20T08:47:56;3.05;;;1.92;;
77586;SDS011;66744;49.716;17.158;2023-07-20T08:50:59;4.40;;;1.75;;
77586;SDS011;66744;49.716;17.158;2023-07-20T08:54:03;2.65;;;1.52;;
77586;SDS011;66744;49.716;17.158;2023-07-20T08:57:05;2.75;;;1.90;;
77586;SDS011;66744;49.716;17.158;2023-07-20T09:00:06;2.00;;;1.50;;
77586;SDS011;66744;49.716;17.158;2023-07-20T09:03:13;2.60;;;1.42;;
77586;SDS011;66744;49.716;17.158;2023-07-20T09:06:15;1.60;;;1.48;;
77586;SDS011;66744;49.716;17.158;2023-07-20T09:09:17;1.75;;;1.65;;
77586;SDS011;66744;49.716;17.158;2023-07-20T09:12:18;2.78;;;2.00;;
77586;SDS011;66744;49.716;17.158;2023-07-20T09:15:20;1.50;;;1.25;;
77586;SDS011;66744;49.716;17.158;2023-07-20T09:18:28;1.60;;;1.30;;
77586;SDS011;66744;49.716;17.158;2023-07-20T09:21:31;2.90;;;1.60;;
77586;SDS011;66744;49.716;17.158;2023-07-20T09:24:35;3.83;;;1.55;;
77586;SDS011;66744;49.716;17.158;2023-07-20T09:27:40;2.60;;;1.35;;
77586;SDS011;66744;49.716;17.158;2023-07-20T09:30:45;3.72;;;1.25;;
77586;SDS011;66744;49.716;17.158;2023-07-20T09:33:47;2.13;;;1.27;;
77586;SDS011;66744;49.716;17.158;2023-07-20T09:36:50;2.10;;;1.38;;
77586;SDS011;66744;49.716;17.158;2023-07-20T09:39:52;2.00;;;1.50;;
77586;SDS011;66744;49.716;17.158;2023-07-20T09:42:56;3.28;;;1.67;;
77586;SDS011;66744;49.716;17.158;2023-07-20T09:46:01;2.35;;;1.23;;
77586;SDS011;66744;49.716;17.158;2023-07-20T09:49:02;3.13;;;1.67;;
77586;SDS011;66744;49.716;17.158;2023-07-20T09:52:12;2.72;;;1.50;;
77586;SDS011;66744;49.716;17.158;2023-07-20T09:55:15;4.18;;;1.40;;
77586;SDS011;66744;49.716;17.158;2023-07-20T09:58:18;4.32;;;1.52;;
77586;SDS011;66744;49.716;17.158;2023-07-20T10:01:21;3.38;;;1.35;;
77586;SDS011;66744;49.716;17.158;2023-07-20T10:04:23;1.52;;;1.23;;
77586;SDS011;66744;49.716;17.158;2023-07-20T10:07:25;4.88;;;1.65;;
77586;SDS011;66744;49.716;17.158;2023-07-20T10:10:34;2.45;;;1.70;;
77586;SDS011;66744;49.716;17.158;2023-07-20T10:13:46;3.47;;;1.25;;
77586;SDS011;66744;49.716;17.158;2023-07-20T10:16:53;3.60;;;1.20;;
77586;SDS011;66744;49.716;17.158;2023-07-20T10:20:01;2.67;;;1.10;;
77586;SDS011;66744;49.716;17.158;2023-07-20T10:23:09;2.38;;;1.10;;
77586;SDS011;66744;49.716;17.158;2023-07-20T10:26:14;2.63;;;1.17;;
77586;SDS011;66744;49.716;17.158;2023-07-20T10:29:16;2.42;;;1.30;;
77586;SDS011;66744;49.716;17.158;2023-07-20T10:32:21;1.90;;;1.20;;
77586;SDS011;66744;49.716;17.158;2023-07-20T10:35:26;2.05;;;1.52;;
77586;SDS011;66744;49.716;17.158;2023-07-20T10:41:47;2.90;;;1.38;;
77586;SDS011;66744;49.716;17.158;2023-07-20T10:44:51;2.67;;;1.05;;
77586;SDS011;66744;49.716;17.158;2023-07-20T10:47:53;2.00;;;1.40;;
77586;SDS011;66744;49.716;17.158;2023-07-20T10:51:11;2.20;;;1.23;;
77586;SDS011;66744;49.716;17.158;2023-07-20T10:57:24;6.00;;;1.50;;
77586;SDS011;66744;49.716;17.158;2023-07-20T11:00:29;2.13;;;1.48;;
77586;SDS011;66744;49.716;17.158;2023-07-20T11:03:31;2.58;;;1.10;;
77586;SDS011;66744;49.716;17.158;2023-07-20T11:06:35;1.50;;;1.00;;
77586;SDS011;66744;49.716;17.158;2023-07-20T11:09:39;2.90;;;1.35;;
77586;SDS011;66744;49.716;17.158;2023-07-20T11:12:49;1.65;;;1.08;;
77586;SDS011;66744;49.716;17.158;2023-07-20T11:16:34;1.50;;;1.23;;
77586;SDS011;66744;49.716;17.158;2023-07-20T11:19:36;1.77;;;1.38;;
77586;SDS011;66744;49.716;17.158;2023-07-20T11:22:38;2.53;;;0.93;;
77586;SDS011;66744;49.716;17.158;2023-07-20T11:25:43;1.30;;;0.80;;
77586;SDS011;66744;49.716;17.158;2023-07-20T11:28:48;4.28;;;0.93;;
77586;SDS011;66744;49.716;17.158;2023-07-20T11:31:53;2.38;;;0.77;;
77586;SDS011;66744;49.716;17.158;2023-07-20T11:34:54;2.70;;;1.15;;
77586;SDS011;66744;49.716;17.158;2023-07-20T11:37:55;1.65;;;0.98;;
77586;SDS011;66744;49.716;17.158;2023-07-20T11:40:57;2.15;;;0.90;;
77586;SDS011;66744;49.716;17.158;2023-07-20T11:43:59;1.73;;;0.80;;
77586;SDS011;66744;49.716;17.158;2023-07-20T11:47:05;3.10;;;1.42;;
77586;SDS011;66744;49.716;17.158;2023-07-20T11:50:11;2.72;;;1.63;;
77586;SDS011;66744;49.716;17.158;2023-07-20T11:53:14;1.52;;;0.90;;
77586;SDS011;66744;49.716;17.158;2023-07-20T11:56:17;3.80;;;1.08;;
77586;SDS011;66744;49.716;17.158;2023-07-20T11:59:21;2.17;;;1.20;;
77586;SDS011;66744;49.716;17.158;2023-07-20T12:02:26;3.45;;;1.30;;
77586;SDS011;66744;49.716;17.158;2023-07-20T12:05:31;1.90;;;1.20;;
77586;SDS011;66744;49.716;17.158;2023-07-20T12:08:33;2.97;;;1.45;;
77586;SDS011;66744;49.716;17.158;2023-07-20T12:11:48;3.30;;;1.45;;
77586;SDS011;66744;49.716;17.158;2023-07-20T12:14:50;2.33;;;1.10;;
77586;SDS011;66744;49.716;17.158;2023-07-20T12:17:52;3.70;;;1.40;;
77586;SDS011;66744;49.716;17.158;2023-07-20T12:21:00;2.42;;;1.10;;
77586;SDS011;66744;49.716;17.158;2023-07-20T12:24:23;1.30;;;0.82;;
77586;SDS011;66744;49.716;17.158;2023-07-20T12:27:27;1.65;;;1.25;;
77586;SDS011;66744;49.716;17.158;2023-07-20T12:30:29;2.03;;;1.35;;
77586;SDS011;66744;49.716;17.158;2023-07-20T12:33:30;2.20;;;1.00;;
77586;SDS011;66744;49.716;17.158;2023-07-20T12:36:32;2.13;;;1.40;;
77586;SDS011;66744;49.716;17.158;2023-07-20T12:39:34;2.17;;;0.88;;
77586;SDS011;66744;49.716;17.158;2023-07-20T12:42:37;5.07;;;1.10;;
77586;SDS011;66744;49.716;17.158;2023-07-20T12:45:41;1.80;;;0.88;;
77586;SDS011;66744;49.716;17.158;2023-07-20T12:48:52;2.17;;;0.98;;
77586;SDS011;66744;49.716;17.158;2023-07-20T12:51:56;1.90;;;1.70;;
77586;SDS011;66744;49.716;17.158;2023-07-20T12:54:57;2.10;;;1.45;;
77586;SDS011;66744;49.716;17.158;2023-07-20T12:57:59;1.25;;;0.95;;
77586;SDS011;66744;49.716;17.158;2023-07-20T13:01:01;1.65;;;1.15;;
77586;SDS011;66744;49.716;17.158;2023-07-20T13:04:02;2.20;;;1.10;;
77586;SDS011;66744;49.716;17.158;2023-07-20T13:07:09;2.15;;;1.05;;
77586;SDS011;66744;49.716;17.158;2023-07-20T13:10:12;2.28;;;1.20;;
77586;SDS011;66744;49.716;17.158;2023-07-20T13:13:14;1.58;;;1.10;;
77586;SDS011;66744;49.716;17.158;2023-07-20T13:16:15;1.40;;;1.13;;
77586;SDS011;66744;49.716;17.158;2023-07-20T13:19:17;2.10;;;1.00;;
77586;SDS011;66744;49.716;17.158;2023-07-20T13:22:24;3.35;;;1.20;;
77586;SDS011;66744;49.716;17.158;2023-07-20T13:25:46;2.97;;;1.40;;
77586;SDS011;66744;49.716;17.158;2023-07-20T13:28:48;2.17;;;1.33;;
77586;SDS011;66744;49.716;17.158;2023-07-20T13:31:52;1.75;;;1.00;;
77586;SDS011;66744;49.716;17.158;2023-07-20T13:34:54;2.25;;;1.17;;
77586;SDS011;66744;49.716;17.158;2023-07-20T13:38:08;2.28;;;1.10;;
77586;SDS011;66744;49.716;17.158;2023-07-20T13:41:10;1.70;;;1.00;;
77586;SDS011;66744;49.716;17.158;2023-07-20T13:44:11;2.38;;;1.30;;
77586;SDS011;66744;49.716;17.158;2023-07-20T13:47:16;2.50;;;1.20;;
77586;SDS011;66744;49.716;17.158;2023-07-20T13:50:21;1.35;;;1.10;;
77586;SDS011;66744;49.716;17.158;2023-07-20T13:53:22;2.60;;;1.20;;
77586;SDS011;66744;49.716;17.158;2023-07-20T13:56:24;1.33;;;1.15;;
77586;SDS011;66744;49.716;17.158;2023-07-20T13:59:25;1.63;;;1.20;;
77586;SDS011;66744;49.716;17.158;2023-07-20T14:02:29;3.78;;;1.30;;
77586;SDS011;66744;49.716;17.158;2023-07-20T14:05:30;2.80;;;1.17;;
77586;SDS011;66744;49.716;17.158;2023-07-20T14:08:32;1.67;;;1.00;;
77586;SDS011;66744;49.716;17.158;2023-07-20T14:11:33;1.50;;;0.90;;
77586;SDS011;66744;49.716;17.158;2023-07-20T14:14:35;1.73;;;1.23;;
77586;SDS011;66744;49.716;17.158;2023-07-20T14:17:37;2.22;;;0.98;;
77586;SDS011;66744;49.716;17.158;2023-07-20T14:20:38;2.38;;;1.23;;
77586;SDS011;66744;49.716;17.158;2023-07-20T14:23:40;2.08;;;1.15;;
77586;SDS011;66744;49.716;17.158;2023-07-20T14:26:41;2.88;;;1.17;;
77586;SDS011;66744;49.716;17.158;2023-07-20T14:29:43;1.40;;;0.77;;
77586;SDS011;66744;49.716;17.158;2023-07-20T14:32:45;2.13;;;1.02;;
77586;SDS011;66744;49.716;17.158;2023-07-20T14:35:47;2.28;;;1.02;;
77586;SDS011;66744;49.716;17.158;2023-07-20T14:38:48;1.33;;;0.90;;
77586;SDS011;66744;49.716;17.158;2023-07-20T14:41:57;1.20;;;0.80;;
77586;SDS011;66744;49.716;17.158;2023-07-20T14:44:58;1.15;;;0.90;;
77586;SDS011;66744;49.716;17.158;2023-07-20T14:48:00;2.28;;;1.13;;
77586;SDS011;66744;49.716;17.158;2023-07-20T14:51:03;2.38;;;1.15;;
77586;SDS011;66744;49.716;17.158;2023-07-20T14:54:05;1.67;;;1.15;;
77586;SDS011;66744;49.716;17.158;2023-07-20T14:57:07;1.23;;;0.93;;
77586;SDS011;66744;49.716;17.158;2023-07-20T15:00:14;1.30;;;0.88;;
77586;SDS011;66744;49.716;17.158;2023-07-20T15:03:16;1.75;;;0.95;;
77586;SDS011;66744;49.716;17.158;2023-07-20T15:06:17;2.15;;;1.13;;
77586;SDS011;66744;49.716;17.158;2023-07-20T15:09:18;2.38;;;1.00;;
77586;SDS011;66744;49.716;17.158;2023-07-20T15:12:20;1.40;;;0.93;;
77586;SDS011;66744;49.716;17.158;2023-07-20T15:15:21;1.83;;;1.00;;
77586;SDS011;66744;49.716;17.158;2023-07-20T15:18:22;1.42;;;1.00;;
77586;SDS011;66744;49.716;17.158;2023-07-20T15:21:24;2.55;;;1.13;;
77586;SDS011;66744;49.716;17.158;2023-07-20T15:24:26;3.22;;;1.20;;
77586;SDS011;66744;49.716;17.158;2023-07-20T15:27:30;1.30;;;1.00;;
77586;SDS011;66744;49.716;17.158;2023-07-20T15:30:34;1.65;;;0.90;;
77586;SDS011;66744;49.716;17.158;2023-07-20T15:33:38;1.23;;;0.80;;
77586;SDS011;66744;49.716;17.158;2023-07-20T15:36:42;2.17;;;0.95;;
77586;SDS011;66744;49.716;17.158;2023-07-20T15:39:48;5.97;;;1.52;;
77586;SDS011;66744;49.716;17.158;2023-07-20T15:42:52;1.00;;;0.90;;
77586;SDS011;66744;49.716;17.158;2023-07-20T15:46:00;1.38;;;1.00;;
77586;SDS011;66744;49.716;17.158;2023-07-20T15:49:29;1.77;;;1.20;;
77586;SDS011;66744;49.716;17.158;2023-07-20T15:52:30;1.42;;;1.33;;
77586;SDS011;66744;49.716;17.158;2023-07-20T15:55:32;1.90;;;1.00;;
77586;SDS011;66744;49.716;17.158;2023-07-20T15:58:35;1.80;;;0.90;;
77586;SDS011;66744;49.716;17.158;2023-07-20T16:01:38;1.13;;;0.93;;
77586;SDS011;66744;49.716;17.158;2023-07-20T16:04:43;1.20;;;1.10;;
77586;SDS011;66744;49.716;17.158;2023-07-20T16:07:46;1.95;;;0.77;;
77586;SDS011;66744;49.716;17.158;2023-07-20T16:10:48;1.33;;;0.95;;
77586;SDS011;66744;49.716;17.158;2023-07-20T16:13:50;1.10;;;0.80;;
77586;SDS011;66744;49.716;17.158;2023-07-20T16:16:53;2.15;;;0.93;;
77586;SDS011;66744;49.716;17.158;2023-07-20T16:19:54;1.10;;;0.70;;
77586;SDS011;66744;49.716;17.158;2023-07-20T16:22:56;2.03;;;0.90;;
77586;SDS011;66744;49.716;17.158;2023-07-20T16:26:00;1.25;;;1.00;;
77586;SDS011;66744;49.716;17.158;2023-07-20T16:29:01;0.98;;;0.73;;
77586;SDS011;66744;49.716;17.158;2023-07-20T16:32:03;1.33;;;0.85;;
77586;SDS011;66744;49.716;17.158;2023-07-20T16:35:05;2.35;;;0.88;;
77586;SDS011;66744;49.716;17.158;2023-07-20T16:38:10;2.25;;;1.20;;
77586;SDS011;66744;49.716;17.158;2023-07-20T16:41:12;2.20;;;1.00;;
77586;SDS011;66744;49.716;17.158;2023-07-20T16:44:13;1.80;;;0.90;;
77586;SDS011;66744;49.716;17.158;2023-07-20T16:47:15;1.65;;;0.95;;
77586;SDS011;66744;49.716;17.158;2023-07-20T16:50:20;1.70;;;1.13;;
77586;SDS011;66744;49.716;17.158;2023-07-20T16:53:21;1.85;;;0.95;;
77586;SDS011;66744;49.716;17.158;2023-07-20T16:56:23;1.65;;;1.00;;
77586;SDS011;66744;49.716;17.158;2023-07-20T16:59:25;1.45;;;1.00;;
77586;SDS011;66744;49.716;17.158;2023-07-20T17:02:29;3.13;;;1.10;;
77586;SDS011;66744;49.716;17.158;2023-07-20T17:05:33;1.00;;;0.77;;
77586;SDS011;66744;49.716;17.158;2023-07-20T17:08:35;3.92;;;1.25;;
77586;SDS011;66744;49.716;17.158;2023-07-20T17:11:36;1.48;;;1.10;;
77586;SDS011;66744;49.716;17.158;2023-07-20T17:14:37;1.88;;;1.00;;
77586;SDS011;66744;49.716;17.158;2023-07-20T17:17:39;1.65;;;0.85;;
77586;SDS011;66744;49.716;17.158;2023-07-20T17:20:40;1.35;;;0.65;;
77586;SDS011;66744;49.716;17.158;2023-07-20T17:23:42;4.30;;;0.98;;
77586;SDS011;66744;49.716;17.158;2023-07-20T17:26:43;0.80;;;0.77;;
77586;SDS011;66744;49.716;17.158;2023-07-20T17:29:44;1.77;;;1.10;;
77586;SDS011;66744;49.716;17.158;2023-07-20T17:32:46;2.45;;;1.00;;
77586;SDS011;66744;49.716;17.158;2023-07-20T17:35:47;1.38;;;0.80;;
77586;SDS011;66744;49.716;17.158;2023-07-20T17:38:55;1.90;;;0.77;;
77586;SDS011;66744;49.716;17.158;2023-07-20T17:42:05;1.38;;;1.27;;
77586;SDS011;66744;49.716;17.158;2023-07-20T17:45:07;2.25;;;0.90;;
77586;SDS011;66744;49.716;17.158;2023-07-20T17:48:09;1.45;;;0.88;;
77586;SDS011;66744;49.716;17.158;2023-07-20T17:51:11;0.98;;;0.88;;
77586;SDS011;66744;49.716;17.158;2023-07-20T17:54:12;1.33;;;0.70;;
77586;SDS011;66744;49.716;17.158;2023-07-20T17:57:14;1.92;;;1.30;;
77586;SDS011;66744;49.716;17.158;2023-07-20T18:00:15;1.25;;;0.80;;
77586;SDS011;66744;49.716;17.158;2023-07-20T18:03:17;2.50;;;1.27;;
77586;SDS011;66744;49.716;17.158;2023-07-20T18:06:18;1.33;;;0.93;;
77586;SDS011;66744;49.716;17.158;2023-07-20T18:09:19;1.38;;;0.80;;
77586;SDS011;66744;49.716;17.158;2023-07-20T18:12:23;1.45;;;0.82;;
77586;SDS011;66744;49.716;17.158;2023-07-20T18:15:24;2.40;;;1.30;;
77586;SDS011;66744;49.716;17.158;2023-07-20T18:18:27;2.13;;;1.30;;
77586;SDS011;66744;49.716;17.158;2023-07-20T18:21:29;1.27;;;1.00;;
77586;SDS011;66744;49.716;17.158;2023-07-20T18:24:30;1.30;;;0.80;;
77586;SDS011;66744;49.716;17.158;2023-07-20T18:27:40;2.28;;;0.82;;